Nancy Marian — WDJ3314 — position and weather

sailwx.info

Track history (hours):
 
Tides and Currents Weather Stations Pressure Air Temp Water Temp Dewpoint Dewpoint Depression Visibility Wind Speed Wind Dir Waves Ship Positions

Nancy Marian

Owner: Buffalo Marine Service, Inc., Houston, TX. More information available from US FCC via Universal Licensing System and Coast Guard Vessel Documentation Center.

Last reported at 2018-Apr-25 07:21 UTC. Time now 2018-Apr-26 03:39 UTC.
Position N 29°45' W 095°17'.

Length 21 m; draft 3 m.

Type: Tug. MMSI: 367766820.

Date/timePositionNaut miles runAvg speedWind from/ knotsBaromVisibWave heightAir tempDewpointWater temp
2018-Apr-25 07:21N 29°45' W 095°17'2 0.3
2018-Apr-25 01:54N 29°44' W 095°15'5 5.9
2018-Apr-25 01:07N 29°45' W 095°10'1 6.0
2018-Apr-25 01:00N 29°44' W 095°10'3 5.6
2018-Apr-25 00:30N 29°45' W 095°06'2 4.6
2018-Apr-24 23:58N 29°44' W 095°03'3 6.3
2018-Apr-24 23:30N 29°42' W 095°01'3 6.9
2018-Apr-24 23:00N 29°40' W 094°58'4 7.7
2018-Apr-24 22:30N 29°36' W 094°57'4 8.0
2018-Apr-24 22:00N 29°33' W 094°54'4 8.1
2018-Apr-24 21:30N 29°29' W 094°52'3 0.3
2018-Apr-24 09:35N 29°27' W 094°51'1 8.0
2018-Apr-24 09:24N 29°28' W 094°51'3 7.9
2018-Apr-24 09:01N 29°31' W 094°53'4 7.6
2018-Apr-24 08:30N 29°34' W 094°55'4 7.3
2018-Apr-24 08:00N 29°37' W 094°57'4 7.6
2018-Apr-24 07:31N 29°41' W 094°59'4 7.0
2018-Apr-24 06:53N 29°44' W 095°02'4 3.2
2018-Apr-24 05:37N 29°46' W 095°06'7 4.9
2018-Apr-24 04:10N 29°44' W 095°13'4 0.2
2018-Apr-23 12:35N 29°45' W 095°17'0 0.0
2018-Apr-23 12:29N 29°45' W 095°17'2 1.4
2018-Apr-23 10:49N 29°43' W 095°15'5 6.1
2018-Apr-23 10:02N 29°45' W 095°10'0 7.0
2018-Apr-23 09:58N 29°44' W 095°09'3 6.4
2018-Apr-23 09:26N 29°45' W 095°06'1 0.6
2018-Apr-23 07:19N 29°47' W 095°06'0 0.4
2018-Apr-23 06:58N 29°46' W 095°06'1 1.2
2018-Apr-23 06:27N 29°46' W 095°06'2 3.6
2018-Apr-23 05:54N 29°44' W 095°07'2 5.3
2018-Apr-23 05:28N 29°45' W 095°10'1 0.0
2018-Apr-22 17:56N 29°44' W 095°09'2 4.6
2018-Apr-22 17:29N 29°44' W 095°07'1 0.2
2018-Apr-22 13:06N 29°45' W 095°06'0 0.0
2018-Apr-22 13:00N 29°45' W 095°06'1 0.2
2018-Apr-22 10:48N 29°45' W 095°06'1 0.1
2018-Apr-22 00:24N 29°46' W 095°06'0 0.0
2018-Apr-21 23:15N 29°46' W 095°06'0 0.0
2018-Apr-21 17:38N 29°46' W 095°06'1 3.7
2018-Apr-21 17:24N 29°46' W 095°05'0 0.0
2018-Apr-21 15:40N 29°46' W 095°05'1 4.2
2018-Apr-21 15:28N 29°46' W 095°06'0 0.0
2018-Apr-21 14:58N 29°46' W 095°06'2 4.8
2018-Apr-21 14:29N 29°45' W 095°04'3 7.0
2018-Apr-21 14:00N 29°43' W 095°01'4 7.6
2018-Apr-21 13:30N 29°40' W 094°58'3 5.8
2018-Apr-21 13:00N 29°37' W 094°59'2 3.0
2018-Apr-21 12:29N 29°37' W 095°00'0 0.0
2018-Apr-21 11:59N 29°37' W 095°00'0 0.0
2018-Apr-21 11:29N 29°37' W 095°00'0 0.0
2018-Apr-21 10:47N 29°37' W 095°00'0 0.0
2018-Apr-21 10:23N 29°37' W 095°00'0 0.0
2018-Apr-21 09:59N 29°37' W 095°00'0 0.0
2018-Apr-21 09:29N 29°37' W 095°00'0 0.0
2018-Apr-21 08:51N 29°37' W 095°00'0 0.0
2018-Apr-21 08:29N 29°37' W 095°00'0 0.0
2018-Apr-21 07:59N 29°37' W 095°00'0 0.0
2018-Apr-21 07:29N 29°37' W 095°00'0 0.0
2018-Apr-21 06:59N 29°37' W 095°00'0 0.0
2018-Apr-21 06:26N 29°37' W 095°00'0 0.1
2018-Apr-21 05:59N 29°37' W 095°00'0 0.3
2018-Apr-21 05:29N 29°37' W 095°01'0 0.0
2018-Apr-21 04:56N 29°37' W 095°01'0 0.0
2018-Apr-21 04:29N 29°37' W 095°01'0 0.0
2018-Apr-21 03:56N 29°37' W 095°01'0 0.0
2018-Apr-21 03:26N 29°37' W 095°01'0 0.0
2018-Apr-21 02:59N 29°37' W 095°01'0 0.0
2018-Apr-21 02:26N 29°37' W 095°01'0 0.0
2018-Apr-21 01:56N 29°37' W 095°01'0 0.0
2018-Apr-21 01:29N 29°37' W 095°01'0 0.0
2018-Apr-21 00:59N 29°37' W 095°01'0 0.0
2018-Apr-21 00:29N 29°37' W 095°01'0 1.0
2018-Apr-21 00:00N 29°37' W 095°00'0 0.0
2018-Apr-20 23:30N 29°37' W 095°00'0 0.0
2018-Apr-20 23:00N 29°37' W 095°00'0 0.0
2018-Apr-20 22:30N 29°37' W 095°00'0 0.0
2018-Apr-20 22:00N 29°37' W 095°00'0 0.0
2018-Apr-20 21:30N 29°37' W 095°00'0 0.0
2018-Apr-20 21:00N 29°37' W 095°00'0 0.0
2018-Apr-20 20:30N 29°37' W 095°00'0 0.0
2018-Apr-20 20:00N 29°37' W 095°00'0 0.0
2018-Apr-20 19:30N 29°37' W 095°00'0 0.0
2018-Apr-20 19:00N 29°37' W 095°00'0 0.0
2018-Apr-20 18:30N 29°37' W 095°00'0 0.0
2018-Apr-20 18:00N 29°37' W 095°00'0 0.0
2018-Apr-20 17:30N 29°37' W 095°00'0 0.0
2018-Apr-20 17:00N 29°37' W 095°00'0 0.0
2018-Apr-20 16:30N 29°37' W 095°00'0 0.4
2018-Apr-20 16:00N 29°37' W 095°00'0 0.5
2018-Apr-20 15:26N 29°37' W 095°01'0 0.0
2018-Apr-20 14:53N 29°37' W 095°01'0 0.0
2018-Apr-20 14:29N 29°37' W 095°01'0 0.0
2018-Apr-20 13:59N 29°37' W 095°01'0 0.0
2018-Apr-20 13:28N 29°37' W 095°01'0 0.0
2018-Apr-20 12:59N 29°37' W 095°01'0 0.0
2018-Apr-20 12:29N 29°37' W 095°01'0 0.0
2018-Apr-20 11:59N 29°37' W 095°01'0 0.0
2018-Apr-20 11:29N 29°37' W 095°01'0 0.0
2018-Apr-20 10:59N 29°37' W 095°01'0 0.0
2018-Apr-20 10:28N 29°37' W 095°01'0 0.0
2018-Apr-20 09:56N 29°37' W 095°01'0 0.0
2018-Apr-20 09:28N 29°37' W 095°01'0 0.0
2018-Apr-20 08:59N 29°37' W 095°01'0 0.0
2018-Apr-20 08:28N 29°37' W 095°01'0 0.0
2018-Apr-20 07:55N 29°37' W 095°01'0 0.1
2018-Apr-20 07:30N 29°37' W 095°01'3 5.3
2018-Apr-20 07:00N 29°37' W 094°58'4 7.5
2018-Apr-20 06:30N 29°41' W 094°59'5 0.8
2018-Apr-20 00:10N 29°44' W 095°03'0 0.1
2018-Apr-19 23:54N 29°44' W 095°03'0 0.0
2018-Apr-19 23:18N 29°44' W 095°03'0 0.0
2018-Apr-19 22:54N 29°44' W 095°03'0 0.0
2018-Apr-19 22:24N 29°44' W 095°03'0 0.0
2018-Apr-19 21:54N 29°44' W 095°03'0 0.0
2018-Apr-19 21:30N 29°44' W 095°03'0 0.0
2018-Apr-19 21:00N 29°44' W 095°03'0 0.0
2018-Apr-19 20:30N 29°44' W 095°03'0 0.0
2018-Apr-19 20:00N 29°44' W 095°03'0 0.3
2018-Apr-19 19:30N 29°44' W 095°03'0 0.2
2018-Apr-19 18:59N 29°44' W 095°03'0 0.0
2018-Apr-19 18:30N 29°44' W 095°03'0 0.1
2018-Apr-19 17:58N 29°44' W 095°03'0 0.0
2018-Apr-19 17:28N 29°44' W 095°03'0 0.0
2018-Apr-19 16:58N 29°44' W 095°03'0 0.0
2018-Apr-19 16:28N 29°44' W 095°03'0 0.0
2018-Apr-19 15:58N 29°44' W 095°03'0 0.0
2018-Apr-19 15:28N 29°44' W 095°03'0 0.0
2018-Apr-19 14:58N 29°44' W 095°03'0 0.0
2018-Apr-19 14:28N 29°44' W 095°03'0 0.0
2018-Apr-19 13:58N 29°44' W 095°03'0 0.0
2018-Apr-19 13:28N 29°44' W 095°03'0 0.0
2018-Apr-19 12:58N 29°44' W 095°03'0 0.0
2018-Apr-19 12:19N 29°44' W 095°03'0 0.0
2018-Apr-19 11:58N 29°44' W 095°03'0 0.0
2018-Apr-19 11:25N 29°44' W 095°03'0 0.0
2018-Apr-19 10:58N 29°44' W 095°03'0 0.0
2018-Apr-19 10:19N 29°44' W 095°03'0 0.0
2018-Apr-19 09:58N 29°44' W 095°03'0 0.0
2018-Apr-19 09:28N 29°44' W 095°03'0 0.0
2018-Apr-19 08:58N 29°44' W 095°03'0 0.0
2018-Apr-19 08:22N 29°44' W 095°03'0 0.0
2018-Apr-19 07:58N 29°44' W 095°03'0 0.0
2018-Apr-19 07:28N 29°44' W 095°03'0 0.0
2018-Apr-19 06:55N 29°44' W 095°03'0 0.0
2018-Apr-19 06:22N 29°44' W 095°03'0 0.0
2018-Apr-19 05:46N 29°44' W 095°03'0 0.0
2018-Apr-19 05:28N 29°44' W 095°03'0 0.0
2018-Apr-19 04:58N 29°44' W 095°03'0 0.0
2018-Apr-19 04:28N 29°44' W 095°03'0 0.0
2018-Apr-19 03:58N 29°44' W 095°03'0 0.0
2018-Apr-19 03:28N 29°44' W 095°03'3 0.2
2018-Apr-18 14:57N 29°45' W 095°06'1 0.1
2018-Apr-17 21:38N 29°46' W 095°06'1 4.2
2018-Apr-17 21:26N 29°46' W 095°05'1 2.2
2018-Apr-17 21:00N 29°45' W 095°06'1 1.7
2018-Apr-17 20:24N 29°46' W 095°06'0 0.1
2018-Apr-17 12:52N 29°46' W 095°06'0 0.8
2018-Apr-17 12:31N 29°46' W 095°06'1 0.8
2018-Apr-17 11:12N 29°45' W 095°06'0 0.0
2018-Apr-17 10:57N 29°45' W 095°06'0 0.0
2018-Apr-17 10:27N 29°45' W 095°06'0 0.0
2018-Apr-17 09:54N 29°45' W 095°06'0 0.0
2018-Apr-17 09:30N 29°45' W 095°06'0 0.0
2018-Apr-17 08:36N 29°45' W 095°06'0 0.0
2018-Apr-17 08:27N 29°45' W 095°06'0 0.0
2018-Apr-17 07:51N 29°45' W 095°06'0 0.0
2018-Apr-17 07:18N 29°45' W 095°06'0 0.0
2018-Apr-17 07:00N 29°45' W 095°06'0 0.0
2018-Apr-17 06:30N 29°45' W 095°06'0 0.0
2018-Apr-17 06:00N 29°45' W 095°06'0 0.2
2018-Apr-17 05:30N 29°45' W 095°06'1 2.7
2018-Apr-17 05:00N 29°46' W 095°05'4 6.4
2018-Apr-17 04:26N 29°43' W 095°01'2 5.9
2018-Apr-17 04:01N 29°42' W 094°59'3 6.8
2018-Apr-17 03:30N 29°38' W 094°58'4 7.3
2018-Apr-17 03:00N 29°35' W 094°56'4 7.5
2018-Apr-17 02:30N 29°32' W 094°54'4 7.3
2018-Apr-17 01:59N 29°29' W 094°51'  
Track history (hours):
 
Tides and Currents Weather Stations Pressure Air Temp Water Temp Dewpoint Dewpoint Depression Visibility Wind Speed Wind Dir Waves Ship Positions

Nancy Marian

Owner: Buffalo Marine Service, Inc., Houston, TX. More information available from US FCC via Universal Licensing System and Coast Guard Vessel Documentation Center.

Last reported at 2018-Apr-25 07:21 UTC. Time now 2018-Apr-26 03:39 UTC.
Position N 29°45' W 095°17'.

Length 21 m; draft 3 m.

Type: Tug. MMSI: 367766820.

Date/timePositionNaut miles runAvg speedWind from/ knotsBaromVisibWave heightAir tempDewpointWater temp
2018-Apr-25 07:21N 29°45' W 095°17'2 0.3
2018-Apr-25 01:54N 29°44' W 095°15'5 5.9
2018-Apr-25 01:07N 29°45' W 095°10'1 6.0
2018-Apr-25 01:00N 29°44' W 095°10'3 5.6
2018-Apr-25 00:30N 29°45' W 095°06'2 4.6
2018-Apr-24 23:58N 29°44' W 095°03'3 6.3
2018-Apr-24 23:30N 29°42' W 095°01'3 6.9
2018-Apr-24 23:00N 29°40' W 094°58'4 7.7
2018-Apr-24 22:30N 29°36' W 094°57'4 8.0
2018-Apr-24 22:00N 29°33' W 094°54'4 8.1
2018-Apr-24 21:30N 29°29' W 094°52'3 0.3
2018-Apr-24 09:35N 29°27' W 094°51'1 8.0
2018-Apr-24 09:24N 29°28' W 094°51'3 7.9
2018-Apr-24 09:01N 29°31' W 094°53'4 7.6
2018-Apr-24 08:30N 29°34' W 094°55'4 7.3
2018-Apr-24 08:00N 29°37' W 094°57'4 7.6
2018-Apr-24 07:31N 29°41' W 094°59'4 7.0
2018-Apr-24 06:53N 29°44' W 095°02'4 3.2
2018-Apr-24 05:37N 29°46' W 095°06'7 4.9
2018-Apr-24 04:10N 29°44' W 095°13'4 0.2
2018-Apr-23 12:35N 29°45' W 095°17'0 0.0
2018-Apr-23 12:29N 29°45' W 095°17'2 1.4
2018-Apr-23 10:49N 29°43' W 095°15'5 6.1
2018-Apr-23 10:02N 29°45' W 095°10'0 7.0
2018-Apr-23 09:58N 29°44' W 095°09'3 6.4
2018-Apr-23 09:26N 29°45' W 095°06'1 0.6
2018-Apr-23 07:19N 29°47' W 095°06'0 0.4
2018-Apr-23 06:58N 29°46' W 095°06'1 1.2
2018-Apr-23 06:27N 29°46' W 095°06'2 3.6
2018-Apr-23 05:54N 29°44' W 095°07'2 5.3
2018-Apr-23 05:28N 29°45' W 095°10'1 0.0
2018-Apr-22 17:56N 29°44' W 095°09'2 4.6
2018-Apr-22 17:29N 29°44' W 095°07'1 0.2
2018-Apr-22 13:06N 29°45' W 095°06'0 0.0
2018-Apr-22 13:00N 29°45' W 095°06'1 0.2
2018-Apr-22 10:48N 29°45' W 095°06'1 0.1
2018-Apr-22 00:24N 29°46' W 095°06'0 0.0
2018-Apr-21 23:15N 29°46' W 095°06'0 0.0
2018-Apr-21 17:38N 29°46' W 095°06'1 3.7
2018-Apr-21 17:24N 29°46' W 095°05'0 0.0
2018-Apr-21 15:40N 29°46' W 095°05'1 4.2
2018-Apr-21 15:28N 29°46' W 095°06'0 0.0
2018-Apr-21 14:58N 29°46' W 095°06'2 4.8
2018-Apr-21 14:29N 29°45' W 095°04'3 7.0
2018-Apr-21 14:00N 29°43' W 095°01'4 7.6
2018-Apr-21 13:30N 29°40' W 094°58'3 5.8
2018-Apr-21 13:00N 29°37' W 094°59'2 3.0
2018-Apr-21 12:29N 29°37' W 095°00'0 0.0
2018-Apr-21 11:59N 29°37' W 095°00'0 0.0
2018-Apr-21 11:29N 29°37' W 095°00'0 0.0
2018-Apr-21 10:47N 29°37' W 095°00'0 0.0
2018-Apr-21 10:23N 29°37' W 095°00'0 0.0
2018-Apr-21 09:59N 29°37' W 095°00'0 0.0
2018-Apr-21 09:29N 29°37' W 095°00'0 0.0
2018-Apr-21 08:51N 29°37' W 095°00'0 0.0
2018-Apr-21 08:29N 29°37' W 095°00'0 0.0
2018-Apr-21 07:59N 29°37' W 095°00'0 0.0
2018-Apr-21 07:29N 29°37' W 095°00'0 0.0
2018-Apr-21 06:59N 29°37' W 095°00'0 0.0
2018-Apr-21 06:26N 29°37' W 095°00'0 0.1
2018-Apr-21 05:59N 29°37' W 095°00'0 0.3
2018-Apr-21 05:29N 29°37' W 095°01'0 0.0
2018-Apr-21 04:56N 29°37' W 095°01'0 0.0
2018-Apr-21 04:29N 29°37' W 095°01'0 0.0
2018-Apr-21 03:56N 29°37' W 095°01'0 0.0
2018-Apr-21 03:26N 29°37' W 095°01'0 0.0
2018-Apr-21 02:59N 29°37' W 095°01'0 0.0
2018-Apr-21 02:26N 29°37' W 095°01'0 0.0
2018-Apr-21 01:56N 29°37' W 095°01'0 0.0
2018-Apr-21 01:29N 29°37' W 095°01'0 0.0
2018-Apr-21 00:59N 29°37' W 095°01'0 0.0
2018-Apr-21 00:29N 29°37' W 095°01'0 1.0
2018-Apr-21 00:00N 29°37' W 095°00'0 0.0
2018-Apr-20 23:30N 29°37' W 095°00'0 0.0
2018-Apr-20 23:00N 29°37' W 095°00'0 0.0
2018-Apr-20 22:30N 29°37' W 095°00'0 0.0
2018-Apr-20 22:00N 29°37' W 095°00'0 0.0
2018-Apr-20 21:30N 29°37' W 095°00'0 0.0
2018-Apr-20 21:00N 29°37' W 095°00'0 0.0
2018-Apr-20 20:30N 29°37' W 095°00'0 0.0
2018-Apr-20 20:00N 29°37' W 095°00'0 0.0
2018-Apr-20 19:30N 29°37' W 095°00'0 0.0
2018-Apr-20 19:00N 29°37' W 095°00'0 0.0
2018-Apr-20 18:30N 29°37' W 095°00'0 0.0
2018-Apr-20 18:00N 29°37' W 095°00'0 0.0
2018-Apr-20 17:30N 29°37' W 095°00'0 0.0
2018-Apr-20 17:00N 29°37' W 095°00'0 0.0
2018-Apr-20 16:30N 29°37' W 095°00'0 0.4
2018-Apr-20 16:00N 29°37' W 095°00'0 0.5
2018-Apr-20 15:26N 29°37' W 095°01'0 0.0
2018-Apr-20 14:53N 29°37' W 095°01'0 0.0
2018-Apr-20 14:29N 29°37' W 095°01'0 0.0
2018-Apr-20 13:59N 29°37' W 095°01'0 0.0
2018-Apr-20 13:28N 29°37' W 095°01'0 0.0
2018-Apr-20 12:59N 29°37' W 095°01'0 0.0
2018-Apr-20 12:29N 29°37' W 095°01'0 0.0
2018-Apr-20 11:59N 29°37' W 095°01'0 0.0
2018-Apr-20 11:29N 29°37' W 095°01'0 0.0
2018-Apr-20 10:59N 29°37' W 095°01'0 0.0
2018-Apr-20 10:28N 29°37' W 095°01'0 0.0
2018-Apr-20 09:56N 29°37' W 095°01'0 0.0
2018-Apr-20 09:28N 29°37' W 095°01'0 0.0
2018-Apr-20 08:59N 29°37' W 095°01'0 0.0
2018-Apr-20 08:28N 29°37' W 095°01'0 0.0
2018-Apr-20 07:55N 29°37' W 095°01'0 0.1
2018-Apr-20 07:30N 29°37' W 095°01'3 5.3
2018-Apr-20 07:00N 29°37' W 094°58'4 7.5
2018-Apr-20 06:30N 29°41' W 094°59'5 0.8
2018-Apr-20 00:10N 29°44' W 095°03'0 0.1
2018-Apr-19 23:54N 29°44' W 095°03'0 0.0
2018-Apr-19 23:18N 29°44' W 095°03'0 0.0
2018-Apr-19 22:54N 29°44' W 095°03'0 0.0
2018-Apr-19 22:24N 29°44' W 095°03'0 0.0
2018-Apr-19 21:54N 29°44' W 095°03'0 0.0
2018-Apr-19 21:30N 29°44' W 095°03'0 0.0
2018-Apr-19 21:00N 29°44' W 095°03'0 0.0
2018-Apr-19 20:30N 29°44' W 095°03'0 0.0
2018-Apr-19 20:00N 29°44' W 095°03'0 0.3
2018-Apr-19 19:30N 29°44' W 095°03'0 0.2
2018-Apr-19 18:59N 29°44' W 095°03'0 0.0
2018-Apr-19 18:30N 29°44' W 095°03'0 0.1
2018-Apr-19 17:58N 29°44' W 095°03'0 0.0
2018-Apr-19 17:28N 29°44' W 095°03'0 0.0
2018-Apr-19 16:58N 29°44' W 095°03'0 0.0
2018-Apr-19 16:28N 29°44' W 095°03'0 0.0
2018-Apr-19 15:58N 29°44' W 095°03'0 0.0
2018-Apr-19 15:28N 29°44' W 095°03'0 0.0
2018-Apr-19 14:58N 29°44' W 095°03'0 0.0
2018-Apr-19 14:28N 29°44' W 095°03'0 0.0
2018-Apr-19 13:58N 29°44' W 095°03'0 0.0
2018-Apr-19 13:28N 29°44' W 095°03'0 0.0
2018-Apr-19 12:58N 29°44' W 095°03'0 0.0
2018-Apr-19 12:19N 29°44' W 095°03'0 0.0
2018-Apr-19 11:58N 29°44' W 095°03'0 0.0
2018-Apr-19 11:25N 29°44' W 095°03'0 0.0
2018-Apr-19 10:58N 29°44' W 095°03'0 0.0
2018-Apr-19 10:19N 29°44' W 095°03'0 0.0
2018-Apr-19 09:58N 29°44' W 095°03'0 0.0
2018-Apr-19 09:28N 29°44' W 095°03'0 0.0
2018-Apr-19 08:58N 29°44' W 095°03'0 0.0
2018-Apr-19 08:22N 29°44' W 095°03'0 0.0
2018-Apr-19 07:58N 29°44' W 095°03'0 0.0
2018-Apr-19 07:28N 29°44' W 095°03'0 0.0
2018-Apr-19 06:55N 29°44' W 095°03'0 0.0
2018-Apr-19 06:22N 29°44' W 095°03'0 0.0
2018-Apr-19 05:46N 29°44' W 095°03'0 0.0
2018-Apr-19 05:28N 29°44' W 095°03'0 0.0
2018-Apr-19 04:58N 29°44' W 095°03'0 0.0
2018-Apr-19 04:28N 29°44' W 095°03'0 0.0
2018-Apr-19 03:58N 29°44' W 095°03'0 0.0
2018-Apr-19 03:28N 29°44' W 095°03'3 0.2
2018-Apr-18 14:57N 29°45' W 095°06'1 0.1
2018-Apr-17 21:38N 29°46' W 095°06'1 4.2
2018-Apr-17 21:26N 29°46' W 095°05'1 2.2
2018-Apr-17 21:00N 29°45' W 095°06'1 1.7
2018-Apr-17 20:24N 29°46' W 095°06'0 0.1
2018-Apr-17 12:52N 29°46' W 095°06'0 0.8
2018-Apr-17 12:31N 29°46' W 095°06'1 0.8
2018-Apr-17 11:12N 29°45' W 095°06'0 0.0
2018-Apr-17 10:57N 29°45' W 095°06'0 0.0
2018-Apr-17 10:27N 29°45' W 095°06'0 0.0
2018-Apr-17 09:54N 29°45' W 095°06'0 0.0
2018-Apr-17 09:30N 29°45' W 095°06'0 0.0
2018-Apr-17 08:36N 29°45' W 095°06'0 0.0
2018-Apr-17 08:27N 29°45' W 095°06'0 0.0
2018-Apr-17 07:51N 29°45' W 095°06'0 0.0
2018-Apr-17 07:18N 29°45' W 095°06'0 0.0
2018-Apr-17 07:00N 29°45' W 095°06'0 0.0
2018-Apr-17 06:30N 29°45' W 095°06'0 0.0
2018-Apr-17 06:00N 29°45' W 095°06'0 0.2
2018-Apr-17 05:30N 29°45' W 095°06'1 2.7
2018-Apr-17 05:00N 29°46' W 095°05'4 6.4
2018-Apr-17 04:26N 29°43' W 095°01'2 5.9
2018-Apr-17 04:01N 29°42' W 094°59'3 6.8
2018-Apr-17 03:30N 29°38' W 094°58'4 7.3
2018-Apr-17 03:00N 29°35' W 094°56'4 7.5
2018-Apr-17 02:30N 29°32' W 094°54'4 7.3
2018-Apr-17 01:59N 29°29' W 094°51'  

Dump ship's entire track history